Airfield :
LOGIN :

Register | Disclaimer

   EN    FR    IT 

 










Legend :    VFR   Marginal VFR   IFR   Intensive IFR   Very Intensive IFR
Visi :
Ceiling :
>= 8 km
>= 3000ft
5 to 8 km
1000 to 3000 ft
1500m to 5 km
500 to 1000 ft
800 to 1500m
200 to 500 ft
< 800m
< 200 ft
Symbols :   Thunderstorms  Fog  Heavy snow  Heavy precipitations  Wind > 20 kt
SIGMETs :     Misc.  Thunderstorms  Icing  Turbulence  Mountain Waves  Volcanic Ashes






- Airport Elevation : 461 ft
- IATA code : WIE


ETOU - Wiesbaden Army

CURRENT METAR :
  • 200056Z AUTO 00000KT 9999 OVC024 04/00 A3019 RMK AO2 SLP231 T00390004 $

EXPIRED METARs :
  • 200026Z AUTO 00000KT 9999 BKN029 BKN055 BKN070 OVC090 04/M01 A3020 RMK AO2 CIG 029V070 SLP234 $
  • 192356Z AUTO 00000KT 9999 BKN060 OVC080 04/M01 A3021 RMK AO2 SLP237 T00401014 10054 20022 57008 $
  • 192256Z AUTO 27003KT 9999 OVC050 04/M01 A3021 RMK AO2 SLP238 T00371013 400860022 $
  • 192156Z AUTO 28005KT 9999 BKN060 OVC070 04/M01 A3022 RMK AO2 SLP241 T00351015 $

TAF TAF ETOU
Valid from the 19 at 20:00 until the 21 at 02:00 UTC


192000Z 1920/2102 22006KT 9999 BKN050 QNH3022INS
BECMG 1922/1923 22010KT 9999 OVC018 620202 QNH3017INS
BECMG 2003/2004 20010KT 6000 -SHRA BR OVC008 610202 QNH3012INS
BECMG 2009/2010 23012G22KT 9999 NSW BKN025 620301 520007 QNH3001INS
BECMG 2023/2024 26015G25KT 9000 -SHRA BKN030 520007 QNH3002INS TX08/2014Z TN03/1923Z



MET'MAP, your aeronautical weather chart ! - Copyright ORBIFLY December 2007 - Disclaimer

ORBIFLY MET'MAP TEAM :

Programming & Development : Alexandra Zaïnal
Concept & original design : Baudouin d'Aumeries
Assistance for programming : Marc-Olivier Méhu
Technical & hardware support : Manuel Goepfert

Contact : metmap@orbifly.com




SOURCES & CREDITS :

   NOAA